sensor_id;sensor_type;location;lat;lon;timestamp;pressure;altitude;pressure_sealevel;temperature;humidity
48244;BME280;34053;51.088;6.572;2023-04-08T00:00:26;101583.09;;;9.94;73.42
48244;BME280;34053;51.088;6.572;2023-04-08T00:03:02;101591.81;;;9.93;74.34
48244;BME280;34053;51.088;6.572;2023-04-08T00:05:36;101589.25;;;9.88;74.14
48244;BME280;34053;51.088;6.572;2023-04-08T00:08:10;101590.09;;;9.89;73.77
48244;BME280;34053;51.088;6.572;2023-04-08T00:10:46;101589.22;;;9.91;73.88
48244;BME280;34053;51.088;6.572;2023-04-08T00:13:31;101595.34;;;9.92;73.95
48244;BME280;34053;51.088;6.572;2023-04-08T00:16:05;101591.78;;;9.96;73.01
48244;BME280;34053;51.088;6.572;2023-04-08T00:18:46;101592.63;;;10.00;73.56
48244;BME280;34053;51.088;6.572;2023-04-08T00:21:45;101590.06;;;9.95;73.47
48244;BME280;34053;51.088;6.572;2023-04-08T00:24:22;101592.63;;;9.98;72.72
48244;BME280;34053;51.088;6.572;2023-04-08T00:26:53;101605.84;;;9.89;73.76
48244;BME280;34053;51.088;6.572;2023-04-08T00:29:36;101596.19;;;9.94;73.10
48244;BME280;34053;51.088;6.572;2023-04-08T00:32:20;101594.47;;;9.90;73.45
48244;BME280;34053;51.088;6.572;2023-04-08T00:34:57;101603.28;;;9.83;74.11
48244;BME280;34053;51.088;6.572;2023-04-08T00:37:31;101598.91;;;9.82;75.51
48244;BME280;34053;51.088;6.572;2023-04-08T00:40:02;101598.06;;;9.81;74.13
48244;BME280;34053;51.088;6.572;2023-04-08T00:42:33;101599.78;;;9.84;73.91
48244;BME280;34053;51.088;6.572;2023-04-08T00:45:07;101589.25;;;9.88;73.62
48244;BME280;34053;51.088;6.572;2023-04-08T00:47:40;101593.59;;;9.91;73.36
48244;BME280;34053;51.088;6.572;2023-04-08T00:50:11;101599.00;;;9.74;74.90
48244;BME280;34053;51.088;6.572;2023-04-08T00:52:42;101597.19;;;9.81;73.85
48244;BME280;34053;51.088;6.572;2023-04-08T00:55:15;101602.41;;;9.81;74.68
48244;BME280;34053;51.088;6.572;2023-04-08T00:57:46;101601.53;;;9.85;73.49
48244;BME280;34053;51.088;6.572;2023-04-08T01:00:23;101597.22;;;9.77;75.13
48244;BME280;34053;51.088;6.572;2023-04-08T01:03:24;101604.22;;;9.79;74.42
48244;BME280;34053;51.088;6.572;2023-04-08T01:09:32;101600.66;;;9.83;74.25
48244;BME280;34053;51.088;6.572;2023-04-08T01:12:07;101612.94;;;9.77;74.67
48244;BME280;34053;51.088;6.572;2023-04-08T01:14:46;101603.31;;;9.81;74.18
48244;BME280;34053;51.088;6.572;2023-04-08T01:17:18;101619.94;;;9.79;74.43
48244;BME280;34053;51.088;6.572;2023-04-08T01:19:55;101601.59;;;9.77;74.41
48244;BME280;34053;51.088;6.572;2023-04-08T01:23:05;101604.38;;;9.60;75.93
48244;BME280;34053;51.088;6.572;2023-04-08T01:25:38;101606.00;;;9.73;75.00
48244;BME280;34053;51.088;6.572;2023-04-08T01:28:11;101603.31;;;9.80;74.32
48244;BME280;34053;51.088;6.572;2023-04-08T01:30:42;101610.31;;;9.79;74.15
48244;BME280;34053;51.088;6.572;2023-04-08T01:33:16;101612.88;;;9.84;74.18
48244;BME280;34053;51.088;6.572;2023-04-08T01:35:47;101612.91;;;9.81;73.96
48244;BME280;34053;51.088;6.572;2023-04-08T01:38:22;101610.31;;;9.76;74.08
48244;BME280;34053;51.088;6.572;2023-04-08T01:40:58;101608.63;;;9.75;74.48
48244;BME280;34053;51.088;6.572;2023-04-08T01:43:32;101612.06;;;9.80;74.08
48244;BME280;34053;51.088;6.572;2023-04-08T01:46:05;101606.00;;;9.75;74.92
48244;BME280;34053;51.088;6.572;2023-04-08T01:48:38;101617.34;;;9.72;74.63
48244;BME280;34053;51.088;6.572;2023-04-08T01:51:10;101611.22;;;9.73;74.55
48244;BME280;34053;51.088;6.572;2023-04-08T01:53:44;101612.03;;;9.82;74.01
48244;BME280;34053;51.088;6.572;2023-04-08T01:56:28;101612.16;;;9.68;75.26
48244;BME280;34053;51.088;6.572;2023-04-08T01:59:04;101617.31;;;9.77;73.95
48244;BME280;34053;51.088;6.572;2023-04-08T02:01:42;101607.72;;;9.77;73.90
48244;BME280;34053;51.088;6.572;2023-04-08T02:04:19;101610.41;;;9.68;75.78
48244;BME280;34053;51.088;6.572;2023-04-08T02:07:00;101614.72;;;9.74;74.70
48244;BME280;34053;51.088;6.572;2023-04-08T02:09:34;101613.38;;;9.22;80.31
48244;BME280;34053;51.088;6.572;2023-04-08T02:12:05;101618.66;;;9.20;80.42
48244;BME280;34053;51.088;6.572;2023-04-08T02:14:38;101619.50;;;9.24;80.06
48244;BME280;34053;51.088;6.572;2023-04-08T02:20:18;101618.47;;;9.43;77.23
48244;BME280;34053;51.088;6.572;2023-04-08T02:23:17;101615.75;;;9.56;76.28
48244;BME280;34053;51.088;6.572;2023-04-08T02:25:55;101625.31;;;9.61;75.50
48244;BME280;34053;51.088;6.572;2023-04-08T02:28:27;101631.44;;;9.60;76.10
48244;BME280;34053;51.088;6.572;2023-04-08T02:31:01;101619.19;;;9.63;75.48
48244;BME280;34053;51.088;6.572;2023-04-08T02:33:33;101623.66;;;9.50;77.66
48244;BME280;34053;51.088;6.572;2023-04-08T02:36:13;101619.31;;;9.50;76.78
48244;BME280;34053;51.088;6.572;2023-04-08T02:38:51;101627.09;;;9.58;75.75
48244;BME280;34053;51.088;6.572;2023-04-08T02:41:24;101629.69;;;9.61;75.74
48244;BME280;34053;51.088;6.572;2023-04-08T02:43:57;101633.16;;;9.61;75.45
48244;BME280;34053;51.088;6.572;2023-04-08T02:46:30;101630.66;;;9.51;77.76
48244;BME280;34053;51.088;6.572;2023-04-08T02:49:01;101628.91;;;9.53;76.27
48244;BME280;34053;51.088;6.572;2023-04-08T02:51:32;101626.22;;;9.56;77.19
48244;BME280;34053;51.088;6.572;2023-04-08T02:54:03;101627.28;;;9.33;79.55
48244;BME280;34053;51.088;6.572;2023-04-08T02:56:45;101624.81;;;9.10;82.44
48244;BME280;34053;51.088;6.572;2023-04-08T02:59:16;101629.88;;;9.38;78.20
48244;BME280;34053;51.088;6.572;2023-04-08T03:01:49;101621.91;;;9.49;76.78
48244;BME280;34053;51.088;6.572;2023-04-08T03:04:20;101627.16;;;9.49;77.05
48244;BME280;34053;51.088;6.572;2023-04-08T03:06:51;101626.28;;;9.53;76.37
48244;BME280;34053;51.088;6.572;2023-04-08T03:09:21;101630.59;;;9.57;75.92
48244;BME280;34053;51.088;6.572;2023-04-08T03:11:54;101630.56;;;9.60;76.03
48244;BME280;34053;51.088;6.572;2023-04-08T03:14:25;101624.47;;;9.61;76.65
48244;BME280;34053;51.088;6.572;2023-04-08T03:16:56;101627.06;;;9.59;76.57
48244;BME280;34053;51.088;6.572;2023-04-08T03:19:26;101620.09;;;9.60;76.05
48244;BME280;34053;51.088;6.572;2023-04-08T03:22:00;101621.84;;;9.58;76.43
48244;BME280;34053;51.088;6.572;2023-04-08T03:24:34;101621.84;;;9.58;77.19
48244;BME280;34053;51.088;6.572;2023-04-08T03:27:05;101620.13;;;9.58;76.16
48244;BME280;34053;51.088;6.572;2023-04-08T03:29:37;101623.59;;;9.62;76.24
48244;BME280;34053;51.088;6.572;2023-04-08T03:32:08;101622.75;;;9.55;76.85
48244;BME280;34053;51.088;6.572;2023-04-08T03:34:38;101627.06;;;9.59;75.89
48244;BME280;34053;51.088;6.572;2023-04-08T03:37:14;101626.22;;;9.59;75.90
48244;BME280;34053;51.088;6.572;2023-04-08T03:39:50;101630.69;;;9.44;78.16
48244;BME280;34053;51.088;6.572;2023-04-08T03:42:26;101641.19;;;9.38;78.35
48244;BME280;34053;51.088;6.572;2023-04-08T03:45:04;101633.28;;;9.51;76.38
48244;BME280;34053;51.088;6.572;2023-04-08T03:47:38;101641.06;;;9.57;75.92
48244;BME280;34053;51.088;6.572;2023-04-08T03:50:09;101644.56;;;9.56;76.43
48244;BME280;34053;51.088;6.572;2023-04-08T03:52:41;101642.84;;;9.56;76.03
48244;BME280;34053;51.088;6.572;2023-04-08T03:55:21;101651.59;;;9.54;76.67
48244;BME280;34053;51.088;6.572;2023-04-08T03:57:55;101649.97;;;9.37;77.73
48244;BME280;34053;51.088;6.572;2023-04-08T04:00:37;101644.63;;;9.47;76.38
48244;BME280;34053;51.088;6.572;2023-04-08T04:03:15;101643.72;;;9.55;76.10
48244;BME280;34053;51.088;6.572;2023-04-08T04:05:46;101648.09;;;9.52;76.37
48244;BME280;34053;51.088;6.572;2023-04-08T04:08:19;101649.00;;;9.48;76.60
48244;BME280;34053;51.088;6.572;2023-04-08T04:10:55;101643.72;;;9.52;76.24
48244;BME280;34053;51.088;6.572;2023-04-08T04:13:30;101648.97;;;9.52;76.46
48244;BME280;34053;51.088;6.572;2023-04-08T04:16:03;101643.78;;;9.46;77.82
48244;BME280;34053;51.088;6.572;2023-04-08T04:18:34;101645.53;;;9.45;76.91
48244;BME280;34053;51.088;6.572;2023-04-08T04:21:07;101642.94;;;9.42;76.55
48244;BME280;34053;51.088;6.572;2023-04-08T04:23:38;101652.47;;;9.53;75.83
48244;BME280;34053;51.088;6.572;2023-04-08T04:26:23;101652.56;;;9.36;79.86
48244;BME280;34053;51.088;6.572;2023-04-08T04:28:58;101656.91;;;9.41;78.08
48244;BME280;34053;51.088;6.572;2023-04-08T04:31:41;101663.00;;;9.45;77.19
48244;BME280;34053;51.088;6.572;2023-04-08T04:34:23;101662.09;;;9.51;76.42
48244;BME280;34053;51.088;6.572;2023-04-08T04:36:59;101660.47;;;9.31;80.28
48244;BME280;34053;51.088;6.572;2023-04-08T04:39:35;101670.09;;;9.31;80.00
48244;BME280;34053;51.088;6.572;2023-04-08T04:42:12;101664.75;;;9.44;78.83
48244;BME280;34053;51.088;6.572;2023-04-08T04:44:43;101665.81;;;9.17;81.51
48244;BME280;34053;51.088;6.572;2023-04-08T04:47:16;101672.78;;;9.20;80.79
48244;BME280;34053;51.088;6.572;2023-04-08T04:49:55;101675.59;;;8.81;85.63
48244;BME280;34053;51.088;6.572;2023-04-08T04:52:31;101676.38;;;9.00;83.73
48244;BME280;34053;51.088;6.572;2023-04-08T04:55:02;101678.03;;;9.13;80.75
48244;BME280;34053;51.088;6.572;2023-04-08T04:57:38;101684.16;;;9.17;81.44
48244;BME280;34053;51.088;6.572;2023-04-08T05:02:43;101681.47;;;9.22;80.59
48244;BME280;34053;51.088;6.572;2023-04-08T05:05:39;101679.75;;;9.21;80.16
48244;BME280;34053;51.088;6.572;2023-04-08T05:08:47;101684.09;;;9.20;80.16
48244;BME280;34053;51.088;6.572;2023-04-08T05:11:18;101681.47;;;9.28;80.10
48244;BME280;34053;51.088;6.572;2023-04-08T05:13:48;101692.06;;;9.03;83.36
48244;BME280;34053;51.088;6.572;2023-04-08T05:16:19;101688.59;;;8.98;83.17
48244;BME280;34053;51.088;6.572;2023-04-08T05:18:49;101685.91;;;9.15;81.62
48244;BME280;34053;51.088;6.572;2023-04-08T05:21:20;101693.81;;;9.04;83.56
48244;BME280;34053;51.088;6.572;2023-04-08T05:23:50;101692.06;;;9.00;84.25
48244;BME280;34053;51.088;6.572;2023-04-08T05:26:22;101697.31;;;8.97;84.29
48244;BME280;34053;51.088;6.572;2023-04-08T05:28:53;101694.63;;;9.17;80.70
48244;BME280;34053;51.088;6.572;2023-04-08T05:31:23;101695.53;;;9.05;84.02
48244;BME280;34053;51.088;6.572;2023-04-08T05:33:54;101693.84;;;8.95;83.87
48244;BME280;34053;51.088;6.572;2023-04-08T05:36:24;101695.53;;;9.08;82.58
48244;BME280;34053;51.088;6.572;2023-04-08T05:38:55;101704.28;;;9.01;83.60
48244;BME280;34053;51.088;6.572;2023-04-08T05:41:25;101699.00;;;9.12;81.53
48244;BME280;34053;51.088;6.572;2023-04-08T05:43:56;101699.94;;;9.03;83.25
48244;BME280;34053;51.088;6.572;2023-04-08T05:46:26;101706.81;;;9.18;81.76
48244;BME280;34053;51.088;6.572;2023-04-08T05:48:57;101707.69;;;9.19;80.69
48244;BME280;34053;51.088;6.572;2023-04-08T05:51:27;101708.53;;;9.25;80.08
48244;BME280;34053;51.088;6.572;2023-04-08T05:53:58;101711.28;;;9.02;83.11
48244;BME280;34053;51.088;6.572;2023-04-08T05:56:28;101716.44;;;9.13;81.20
48244;BME280;34053;51.088;6.572;2023-04-08T05:58:59;101726.03;;;9.19;80.89
48244;BME280;34053;51.088;6.572;2023-04-08T06:01:29;101725.19;;;9.10;83.18
48244;BME280;34053;51.088;6.572;2023-04-08T06:04:00;101726.06;;;9.09;81.93
48244;BME280;34053;51.088;6.572;2023-04-08T06:06:30;101723.38;;;9.22;81.02
48244;BME280;34053;51.088;6.572;2023-04-08T06:09:01;101728.59;;;9.28;81.11
48244;BME280;34053;51.088;6.572;2023-04-08T06:11:31;101730.34;;;9.23;80.43
48244;BME280;34053;51.088;6.572;2023-04-08T06:14:02;101732.97;;;9.29;80.13
48244;BME280;34053;51.088;6.572;2023-04-08T06:16:32;101736.47;;;9.25;81.39
48244;BME280;34053;51.088;6.572;2023-04-08T06:19:02;101745.06;;;9.49;79.57
48244;BME280;34053;51.088;6.572;2023-04-08T06:21:33;101745.16;;;9.32;81.25
48244;BME280;34053;51.088;6.572;2023-04-08T06:24:03;101750.38;;;9.35;79.84
48244;BME280;34053;51.088;6.572;2023-04-08T06:26:34;101753.00;;;9.36;81.03
48244;BME280;34053;51.088;6.572;2023-04-08T06:29:04;101753.94;;;9.21;83.01
48244;BME280;34053;51.088;6.572;2023-04-08T06:31:35;101759.13;;;9.31;81.67
48244;BME280;34053;51.088;6.572;2023-04-08T06:34:05;101763.47;;;9.38;80.70
48244;BME280;34053;51.088;6.572;2023-04-08T06:36:36;101759.09;;;9.37;80.78
48244;BME280;34053;51.088;6.572;2023-04-08T06:39:07;101764.38;;;9.34;81.01
48244;BME280;34053;51.088;6.572;2023-04-08T06:41:37;101762.59;;;9.31;80.93
48244;BME280;34053;51.088;6.572;2023-04-08T06:44:08;101760.91;;;9.19;81.11
48244;BME280;34053;51.088;6.572;2023-04-08T06:46:38;101768.69;;;9.39;79.63
48244;BME280;34053;51.088;6.572;2023-04-08T06:49:08;101765.22;;;9.31;80.56
48244;BME280;34053;51.088;6.572;2023-04-08T06:51:39;101773.13;;;9.23;80.39
48244;BME280;34053;51.088;6.572;2023-04-08T06:54:10;101774.91;;;9.13;81.18
48244;BME280;34053;51.088;6.572;2023-04-08T06:56:40;101773.97;;;9.30;80.58
48244;BME280;34053;51.088;6.572;2023-04-08T06:59:10;101772.16;;;9.43;79.49
48244;BME280;34053;51.088;6.572;2023-04-08T07:01:41;101769.53;;;9.38;80.72
48244;BME280;34053;51.088;6.572;2023-04-08T07:04:11;101776.50;;;9.44;79.60
48244;BME280;34053;51.088;6.572;2023-04-08T07:06:42;101773.09;;;9.31;79.52
48244;BME280;34053;51.088;6.572;2023-04-08T07:09:12;101775.69;;;9.37;78.46
48244;BME280;34053;51.088;6.572;2023-04-08T07:11:43;101784.31;;;9.55;78.21
48244;BME280;34053;51.088;6.572;2023-04-08T07:14:13;101784.50;;;9.21;78.05
48244;BME280;34053;51.088;6.572;2023-04-08T07:16:44;101794.09;;;9.19;78.19
48244;BME280;34053;51.088;6.572;2023-04-08T07:19:14;101798.41;;;9.35;77.04
48244;BME280;34053;51.088;6.572;2023-04-08T07:21:45;101792.34;;;9.22;76.78
48244;BME280;34053;51.088;6.572;2023-04-08T07:24:15;101793.13;;;9.44;76.23
48244;BME280;34053;51.088;6.572;2023-04-08T07:26:46;101790.44;;;9.58;76.21
48244;BME280;34053;51.088;6.572;2023-04-08T07:29:17;101797.38;;;9.59;76.00
48244;BME280;34053;51.088;6.572;2023-04-08T07:31:47;101793.94;;;9.53;76.26
48244;BME280;34053;51.088;6.572;2023-04-08T07:34:18;101799.16;;;9.54;76.67
48244;BME280;34053;51.088;6.572;2023-04-08T07:36:48;101797.41;;;9.61;76.56
48244;BME280;34053;51.088;6.572;2023-04-08T07:39:18;101802.53;;;9.73;76.17
48244;BME280;34053;51.088;6.572;2023-04-08T07:41:49;101800.88;;;9.60;77.46
48244;BME280;34053;51.088;6.572;2023-04-08T07:44:19;101803.50;;;9.60;77.74
48244;BME280;34053;51.088;6.572;2023-04-08T07:46:50;101808.59;;;9.82;76.46
48244;BME280;34053;51.088;6.572;2023-04-08T07:49:20;101812.22;;;9.65;77.20
48244;BME280;34053;51.088;6.572;2023-04-08T07:51:51;101816.56;;;9.69;77.33
48244;BME280;34053;51.088;6.572;2023-04-08T07:54:22;101817.28;;;9.93;75.84
48244;BME280;34053;51.088;6.572;2023-04-08T07:56:52;101822.66;;;9.71;76.80
48244;BME280;34053;51.088;6.572;2023-04-08T07:59:23;101826.13;;;9.76;75.55
48244;BME280;34053;51.088;6.572;2023-04-08T08:01:53;101828.72;;;9.81;74.99
48244;BME280;34053;51.088;6.572;2023-04-08T08:04:24;101827.84;;;9.81;74.74
48244;BME280;34053;51.088;6.572;2023-04-08T08:06:55;101826.97;;;9.83;75.40
48244;BME280;34053;51.088;6.572;2023-04-08T08:09:25;101831.44;;;9.63;74.97
48244;BME280;34053;51.088;6.572;2023-04-08T08:11:56;101830.47;;;9.79;75.17
48244;BME280;34053;51.088;6.572;2023-04-08T08:14:26;101840.19;;;9.60;74.74
48244;BME280;34053;51.088;6.572;2023-04-08T08:16:57;101834.84;;;9.79;75.04
48244;BME280;34053;51.088;6.572;2023-04-08T08:19:27;101841.75;;;9.92;74.95
48244;BME280;34053;51.088;6.572;2023-04-08T08:21:58;101839.97;;;9.97;74.61
48244;BME280;34053;51.088;6.572;2023-04-08T08:24:28;101840.91;;;9.91;74.96
48244;BME280;34053;51.088;6.572;2023-04-08T08:26:59;101851.25;;;10.08;74.34
48244;BME280;34053;51.088;6.572;2023-04-08T08:29:30;101848.66;;;10.05;75.27
48244;BME280;34053;51.088;6.572;2023-04-08T08:32:01;101847.09;;;9.73;75.72
48244;BME280;34053;51.088;6.572;2023-04-08T08:34:32;101854.03;;;9.87;75.62
48244;BME280;34053;51.088;6.572;2023-04-08T08:37:03;101847.00;;;9.95;76.00
48244;BME280;34053;51.088;6.572;2023-04-08T08:39:33;101847.75;;;10.11;75.47
48244;BME280;34053;51.088;6.572;2023-04-08T08:42:04;101849.44;;;10.21;75.22
48244;BME280;34053;51.088;6.572;2023-04-08T08:44:34;101845.91;;;10.22;75.28
48244;BME280;34053;51.088;6.572;2023-04-08T08:47:05;101852.88;;;10.27;74.76
48244;BME280;34053;51.088;6.572;2023-04-08T08:49:35;101858.94;;;10.33;74.54
48244;BME280;34053;51.088;6.572;2023-04-08T08:52:06;101855.44;;;10.37;74.89
48244;BME280;34053;51.088;6.572;2023-04-08T08:54:36;101858.94;;;10.41;75.81
48244;BME280;34053;51.088;6.572;2023-04-08T08:57:19;101871.25;;;10.28;74.86
48244;BME280;34053;51.088;6.572;2023-04-08T08:59:50;101870.25;;;10.46;74.81
48244;BME280;34053;51.088;6.572;2023-04-08T09:02:25;101870.31;;;10.40;75.01
48244;BME280;34053;51.088;6.572;2023-04-08T09:05:03;101865.06;;;10.38;75.94
48244;BME280;34053;51.088;6.572;2023-04-08T09:07:35;101866.69;;;10.53;75.50
48244;BME280;34053;51.088;6.572;2023-04-08T09:10:07;101864.88;;;10.62;75.18
48244;BME280;34053;51.088;6.572;2023-04-08T09:13:00;101863.88;;;10.74;74.63
48244;BME280;34053;51.088;6.572;2023-04-08T09:15:30;101870.88;;;10.75;74.61
48244;BME280;34053;51.088;6.572;2023-04-08T09:18:00;101872.56;;;10.79;74.38
48244;BME280;34053;51.088;6.572;2023-04-08T09:20:31;101873.47;;;10.78;74.45
48244;BME280;34053;51.088;6.572;2023-04-08T09:23:02;101869.97;;;10.80;74.71
48244;BME280;34053;51.088;6.572;2023-04-08T09:25:32;101878.69;;;10.82;74.38
48244;BME280;34053;51.088;6.572;2023-04-08T09:28:03;101872.44;;;10.94;74.64
48244;BME280;34053;51.088;6.572;2023-04-08T09:30:34;101871.63;;;10.91;75.13
48244;BME280;34053;51.088;6.572;2023-04-08T09:33:05;101870.66;;;10.98;74.09
48244;BME280;34053;51.088;6.572;2023-04-08T09:35:36;101882.78;;;11.10;73.57
48244;BME280;34053;51.088;6.572;2023-04-08T09:38:07;101877.63;;;11.00;72.84
48244;BME280;34053;51.088;6.572;2023-04-08T09:40:38;101878.41;;;11.09;73.66
48244;BME280;34053;51.088;6.572;2023-04-08T09:43:12;101880.19;;;11.07;72.34
48244;BME280;34053;51.088;6.572;2023-04-08T09:45:45;101885.38;;;11.13;72.65
48244;BME280;34053;51.088;6.572;2023-04-08T09:48:17;101885.41;;;11.08;73.49
48244;BME280;34053;51.088;6.572;2023-04-08T09:50:54;101886.47;;;10.93;73.00
48244;BME280;34053;51.088;6.572;2023-04-08T09:53:34;101891.47;;;11.15;73.28
48244;BME280;34053;51.088;6.572;2023-04-08T09:56:10;101884.63;;;11.01;73.84
48244;BME280;34053;51.088;6.572;2023-04-08T09:58:48;101893.19;;;11.19;72.94
48244;BME280;34053;51.088;6.572;2023-04-08T10:01:27;101885.72;;;10.77;72.47
48244;BME280;34053;51.088;6.572;2023-04-08T10:04:04;101892.44;;;11.08;73.41
48244;BME280;34053;51.088;6.572;2023-04-08T10:06:35;101892.47;;;11.05;73.83
48244;BME280;34053;51.088;6.572;2023-04-08T10:09:06;101896.63;;;11.24;73.48
48244;BME280;34053;51.088;6.572;2023-04-08T10:11:37;101900.22;;;11.17;73.18
48244;BME280;34053;51.088;6.572;2023-04-08T10:14:08;101901.09;;;11.16;73.27
48244;BME280;34053;51.088;6.572;2023-04-08T10:16:38;101900.28;;;11.11;73.17
48244;BME280;34053;51.088;6.572;2023-04-08T10:19:38;101897.75;;;11.00;73.91
48244;BME280;34053;51.088;6.572;2023-04-08T10:27:44;101904.50;;;11.26;73.87
48244;BME280;34053;51.088;6.572;2023-04-08T10:32:58;101891.63;;;11.01;73.84
48244;BME280;34053;51.088;6.572;2023-04-08T10:35:29;101896.75;;;11.13;73.83
48244;BME280;34053;51.088;6.572;2023-04-08T10:38:01;101896.91;;;10.99;74.44
48244;BME280;34053;51.088;6.572;2023-04-08T10:40:41;101889.66;;;11.20;73.81
48244;BME280;34053;51.088;6.572;2023-04-08T10:43:13;101890.72;;;11.05;73.12
48244;BME280;34053;51.088;6.572;2023-04-08T10:45:44;101891.44;;;11.16;72.19
48244;BME280;34053;51.088;6.572;2023-04-08T10:48:22;101889.56;;;11.29;72.47
48244;BME280;34053;51.088;6.572;2023-04-08T10:50:58;101890.34;;;11.39;72.23
48244;BME280;34053;51.088;6.572;2023-04-08T10:53:29;101879.88;;;11.36;71.97
48244;BME280;34053;51.088;6.572;2023-04-08T10:56:08;101880.50;;;11.55;72.17
48244;BME280;34053;51.088;6.572;2023-04-08T10:58:51;101884.00;;;11.54;71.84
48244;BME280;34053;51.088;6.572;2023-04-08T11:01:22;101884.41;;;11.22;71.42
48244;BME280;34053;51.088;6.572;2023-04-08T11:03:52;101882.56;;;11.28;71.54
48244;BME280;34053;51.088;6.572;2023-04-08T11:06:23;101884.25;;;11.36;71.09
48244;BME280;34053;51.088;6.572;2023-04-08T11:08:56;101880.72;;;11.37;70.25
48244;BME280;34053;51.088;6.572;2023-04-08T11:11:30;101880.78;;;11.30;70.96
48244;BME280;34053;51.088;6.572;2023-04-08T11:14:04;101878.38;;;11.13;71.21
48244;BME280;34053;51.088;6.572;2023-04-08T11:16:37;101872.06;;;11.28;70.79
48244;BME280;34053;51.088;6.572;2023-04-08T11:19:08;101873.94;;;11.18;69.73
48244;BME280;34053;51.088;6.572;2023-04-08T11:21:39;101886.06;;;11.32;70.91
48244;BME280;34053;51.088;6.572;2023-04-08T11:24:10;101878.94;;;11.40;70.33
48244;BME280;34053;51.088;6.572;2023-04-08T11:26:41;101875.22;;;11.58;70.50
48244;BME280;34053;51.088;6.572;2023-04-08T11:29:12;101881.47;;;11.48;69.54
48244;BME280;34053;51.088;6.572;2023-04-08T11:31:43;101878.66;;;11.63;69.58
48244;BME280;34053;51.088;6.572;2023-04-08T11:34:22;101878.72;;;11.57;69.24
48244;BME280;34053;51.088;6.572;2023-04-08T11:36:55;101888.19;;;11.72;68.17
48244;BME280;34053;51.088;6.572;2023-04-08T11:39:27;101885.31;;;11.89;68.74
48244;BME280;34053;51.088;6.572;2023-04-08T11:41:58;101878.31;;;11.90;69.08
48244;BME280;34053;51.088;6.572;2023-04-08T11:44:31;101885.66;;;11.64;68.36
48244;BME280;34053;51.088;6.572;2023-04-08T11:47:02;101881.88;;;11.86;68.64
48244;BME280;34053;51.088;6.572;2023-04-08T11:49:45;101880.00;;;11.94;68.17
48244;BME280;34053;51.088;6.572;2023-04-08T11:52:16;101878.28;;;11.91;67.47
48244;BME280;34053;51.088;6.572;2023-04-08T11:54:47;101884.63;;;12.39;67.34
48244;BME280;34053;51.088;6.572;2023-04-08T11:57:27;101879.47;;;12.33;64.91
48244;BME280;34053;51.088;6.572;2023-04-08T11:59:58;101876.97;;;12.23;65.56
48244;BME280;34053;51.088;6.572;2023-04-08T12:02:29;101885.13;;;12.05;64.84
48244;BME280;34053;51.088;6.572;2023-04-08T12:05:00;101879.63;;;12.20;66.19
48244;BME280;34053;51.088;6.572;2023-04-08T12:07:31;101879.72;;;12.14;64.15
48244;BME280;34053;51.088;6.572;2023-04-08T12:10:02;101874.50;;;12.12;63.96
48244;BME280;34053;51.088;6.572;2023-04-08T12:12:33;101872.72;;;12.13;62.23
48244;BME280;34053;51.088;6.572;2023-04-08T12:15:04;101873.50;;;12.20;63.12
48244;BME280;34053;51.088;6.572;2023-04-08T12:17:34;101875.81;;;12.40;62.83
48244;BME280;34053;51.088;6.572;2023-04-08T12:20:05;101875.72;;;12.46;63.62
48244;BME280;34053;51.088;6.572;2023-04-08T12:22:37;101879.25;;;12.45;63.10
48244;BME280;34053;51.088;6.572;2023-04-08T12:25:08;101879.09;;;12.54;63.99
48244;BME280;34053;51.088;6.572;2023-04-08T12:27:38;101881.56;;;12.64;63.79
48244;BME280;34053;51.088;6.572;2023-04-08T12:30:09;101871.34;;;12.45;63.38
48244;BME280;34053;51.088;6.572;2023-04-08T12:32:40;101874.63;;;12.58;63.63
48244;BME280;34053;51.088;6.572;2023-04-08T12:35:12;101874.44;;;12.69;63.80
48244;BME280;34053;51.088;6.572;2023-04-08T12:37:42;101861.28;;;12.69;63.28
48244;BME280;34053;51.088;6.572;2023-04-08T12:40:13;101867.28;;;12.79;62.58
48244;BME280;34053;51.088;6.572;2023-04-08T12:42:44;101870.09;;;12.68;60.75
48244;BME280;34053;51.088;6.572;2023-04-08T12:45:15;101867.91;;;12.41;60.06
48244;BME280;34053;51.088;6.572;2023-04-08T12:47:45;101864.13;;;12.58;61.58
48244;BME280;34053;51.088;6.572;2023-04-08T12:50:16;101878.25;;;12.52;60.15
48244;BME280;34053;51.088;6.572;2023-04-08T12:52:46;101868.63;;;12.51;61.22
48244;BME280;34053;51.088;6.572;2023-04-08T12:55:17;101870.97;;;12.68;60.92
48244;BME280;34053;51.088;6.572;2023-04-08T12:57:48;101874.72;;;12.53;62.41
48244;BME280;34053;51.088;6.572;2023-04-08T13:00:18;101875.94;;;12.34;59.95
48244;BME280;34053;51.088;6.572;2023-04-08T13:02:49;101873.09;;;12.46;59.94
48244;BME280;34053;51.088;6.572;2023-04-08T13:05:20;101878.09;;;12.07;56.85
48244;BME280;34053;51.088;6.572;2023-04-08T13:07:50;101874.06;;;12.40;60.76
48244;BME280;34053;51.088;6.572;2023-04-08T13:10:21;101874.13;;;12.37;60.45
48244;BME280;34053;51.088;6.572;2023-04-08T13:12:51;101878.22;;;11.98;58.87
48244;BME280;34053;51.088;6.572;2023-04-08T13:15:21;101874.66;;;12.02;58.03
48244;BME280;34053;51.088;6.572;2023-04-08T13:17:52;101869.03;;;12.25;60.22
48244;BME280;34053;51.088;6.572;2023-04-08T13:20:23;101865.31;;;12.40;60.01
48244;BME280;34053;51.088;6.572;2023-04-08T13:22:55;101869.09;;;12.20;60.00
48244;BME280;34053;51.088;6.572;2023-04-08T13:25:26;101863.06;;;12.15;59.01
48244;BME280;34053;51.088;6.572;2023-04-08T13:27:56;101854.88;;;12.34;60.97
48244;BME280;34053;51.088;6.572;2023-04-08T13:30:27;101859.00;;;12.49;60.53
48244;BME280;34053;51.088;6.572;2023-04-08T13:32:57;101860.00;;;12.43;60.51
48244;BME280;34053;51.088;6.572;2023-04-08T13:35:28;101868.06;;;12.31;59.43
48244;BME280;34053;51.088;6.572;2023-04-08T13:37:58;101861.81;;;12.38;60.25
48244;BME280;34053;51.088;6.572;2023-04-08T13:40:29;101863.84;;;12.20;59.81
48244;BME280;34053;51.088;6.572;2023-04-08T13:42:59;101860.38;;;12.18;59.79